createdAt,value
2023-02-22T00:00:48.341Z,101142.44
2023-02-22T00:03:18.030Z,101142.02
2023-02-22T00:05:47.848Z,101144.09
2023-02-22T00:08:15.748Z,101142.98
2023-02-22T00:10:43.186Z,101140.52
2023-02-22T00:13:13.573Z,101139.29
2023-02-22T00:15:41.631Z,101138.02
2023-02-22T00:18:10.638Z,101141.25
2023-02-22T00:20:40.906Z,101135.96
2023-02-22T00:23:10.475Z,101138.62
2023-02-22T00:25:37.183Z,101135.55
2023-02-22T00:28:05.116Z,101133.66
2023-02-22T00:30:33.772Z,101134.63
2023-02-22T00:33:00.992Z,101133.09
2023-02-22T00:35:30.128Z,101133.42
2023-02-22T00:38:02.086Z,101126.77
2023-02-22T00:40:34.560Z,101124.48
2023-02-22T00:43:04.254Z,101123.26
2023-02-22T00:45:33.629Z,101121.20
2023-02-22T00:48:01.960Z,101122.02
2023-02-22T00:50:30.509Z,101123.26
2023-02-22T00:52:58.824Z,101118.02
2023-02-22T00:55:28.508Z,101119.41
2023-02-22T00:57:56.302Z,101119.88
2023-02-22T01:00:31.434Z,101119.27
2023-02-22T01:02:58.091Z,101121.67
2023-02-22T01:05:28.360Z,101119.73
2023-02-22T01:07:56.582Z,101123.11
2023-02-22T01:10:27.542Z,101124.27
2023-02-22T01:12:54.719Z,101123.77
2023-02-22T01:15:23.565Z,101121.64
2023-02-22T01:17:53.753Z,101120.34
2023-02-22T01:20:23.016Z,101120.72
2023-02-22T01:22:51.489Z,101120.99
2023-02-22T01:25:21.287Z,101119.60
2023-02-22T01:27:50.288Z,101118.21
2023-02-22T01:30:22.227Z,101118.25
2023-02-22T01:32:51.590Z,101114.98
2023-02-22T01:35:24.378Z,101109.71
2023-02-22T01:37:51.286Z,101111.34
2023-02-22T01:40:28.520Z,101106.92
2023-02-22T01:42:58.786Z,101107.13
2023-02-22T01:45:34.462Z,101102.21
2023-02-22T01:48:06.194Z,101101.71
2023-02-22T01:50:37.315Z,101098.13
2023-02-22T01:53:05.488Z,101093.98
2023-02-22T01:55:35.542Z,101089.31
2023-02-22T01:58:05.156Z,101085.39
2023-02-22T02:00:32.506Z,101084.29
2023-02-22T02:03:08.361Z,101083.79
2023-02-22T02:05:39.246Z,101084.21
2023-02-22T02:08:17.323Z,101081.97
2023-02-22T02:10:44.332Z,101076.81
2023-02-22T02:13:11.344Z,101075.61
2023-02-22T02:15:38.105Z,101071.42
2023-02-22T02:18:07.912Z,101074.55
2023-02-22T02:21:16.195Z,101072.75
2023-02-22T02:24:09.217Z,101069.17
2023-02-22T02:27:01.010Z,101067.62
2023-02-22T02:30:19.388Z,101065.95
2023-02-22T02:33:05.339Z,101062.65
2023-02-22T02:35:39.372Z,101061.39
2023-02-22T02:38:22.225Z,101057.36
2023-02-22T02:41:18.809Z,101056.80
2023-02-22T02:44:10.318Z,101054.24
2023-02-22T02:46:46.941Z,101049.18
2023-02-22T02:49:20.552Z,101047.57
2023-02-22T02:51:52.438Z,101044.39
2023-02-22T02:54:22.487Z,101041.39
2023-02-22T02:56:52.332Z,101040.48
2023-02-22T02:59:33.501Z,101034.49
2023-02-22T03:02:26.538Z,101034.14
2023-02-22T03:05:25.955Z,101030.77
2023-02-22T03:08:00.699Z,101028.11
2023-02-22T03:10:33.345Z,101027.42
2023-02-22T03:13:14.618Z,101027.34
2023-02-22T03:15:51.520Z,101021.70
2023-02-22T03:18:29.171Z,101019.01
2023-02-22T03:21:24.229Z,101020.27
2023-02-22T03:24:21.042Z,101019.38
2023-02-22T03:27:21.842Z,101017.14
2023-02-22T03:29:54.219Z,101014.79
2023-02-22T03:32:27.864Z,101015.70
2023-02-22T03:35:02.355Z,101013.54
2023-02-22T03:37:34.221Z,101012.58
2023-02-22T03:40:14.106Z,101016.74
2023-02-22T03:42:51.215Z,101022.35
2023-02-22T03:45:24.416Z,101019.81
2023-02-22T03:48:01.833Z,101017.80
2023-02-22T03:50:35.816Z,101021.47
2023-02-22T03:53:04.462Z,101019.27
2023-02-22T03:55:32.966Z,101022.73
2023-02-22T03:58:05.049Z,101018.54
2023-02-22T04:00:33.940Z,101024.53
2023-02-22T04:03:01.852Z,101025.67
2023-02-22T04:05:28.568Z,101028.36
2023-02-22T04:07:57.735Z,101026.77
2023-02-22T04:10:25.431Z,101026.70
2023-02-22T04:12:55.645Z,101027.10
2023-02-22T04:15:24.119Z,101027.95
2023-02-22T04:17:55.133Z,101030.42
2023-02-22T04:20:25.578Z,101031.99
2023-02-22T04:22:58.002Z,101033.55
2023-02-22T04:25:24.875Z,101034.30
2023-02-22T04:27:52.783Z,101032.56
2023-02-22T04:30:24.613Z,101034.63
2023-02-22T04:32:51.391Z,101030.45
2023-02-22T04:35:20.998Z,101026.77
2023-02-22T04:37:47.858Z,101027.86
2023-02-22T04:40:18.799Z,101027.05
2023-02-22T04:42:47.053Z,101026.67
2023-02-22T04:45:14.212Z,101026.30
2023-02-22T04:47:41.058Z,101029.81
2023-02-22T04:50:11.178Z,101029.58
2023-02-22T04:52:37.876Z,101028.11
2023-02-22T04:55:07.591Z,101030.70
2023-02-22T04:57:35.813Z,101032.92
2023-02-22T05:00:02.572Z,101030.42
2023-02-22T05:02:31.532Z,101032.75
2023-02-22T05:04:58.150Z,101035.21
2023-02-22T05:07:24.930Z,101031.23
2023-02-22T05:09:51.642Z,101034.61
2023-02-22T05:12:18.248Z,101032.31
2023-02-22T05:14:45.050Z,101031.85
2023-02-22T05:17:11.703Z,101032.09
2023-02-22T05:19:38.724Z,101031.86
2023-02-22T05:22:05.850Z,101031.27
2023-02-22T05:24:32.742Z,101030.15
2023-02-22T05:26:59.426Z,101032.95
2023-02-22T05:29:26.430Z,101030.48
2023-02-22T05:31:53.181Z,101035.00
2023-02-22T05:34:19.903Z,101031.71
2023-02-22T05:36:46.623Z,101032.54
2023-02-22T05:39:13.335Z,101036.23
2023-02-22T05:41:39.951Z,101036.27
2023-02-22T05:44:06.620Z,101038.98
2023-02-22T05:46:33.312Z,101035.95
2023-02-22T05:49:00.173Z,101039.86
2023-02-22T05:51:26.768Z,101039.64
2023-02-22T05:53:53.402Z,101036.91
2023-02-22T05:56:24.686Z,101038.84
2023-02-22T05:58:51.660Z,101037.34
2023-02-22T06:01:18.995Z,101038.41
2023-02-22T06:03:49.998Z,101039.88
2023-02-22T06:06:19.223Z,101044.59
2023-02-22T06:08:46.945Z,101043.85
2023-02-22T06:11:13.869Z,101047.61
2023-02-22T06:13:41.408Z,101044.75
2023-02-22T06:16:08.506Z,101050.02
2023-02-22T06:18:35.320Z,101045.06
2023-02-22T06:21:02.234Z,101046.30
2023-02-22T06:23:28.968Z,101049.00
2023-02-22T06:25:55.645Z,101049.08
2023-02-22T06:28:23.831Z,101050.34
2023-02-22T06:30:50.665Z,101053.59
2023-02-22T06:33:17.248Z,101056.39
2023-02-22T06:35:45.262Z,101056.11
2023-02-22T06:38:11.848Z,101058.47
2023-02-22T06:40:38.422Z,101061.95
2023-02-22T06:43:05.073Z,101066.66
2023-02-22T06:45:31.803Z,101063.51
2023-02-22T06:47:58.460Z,101066.41
2023-02-22T06:50:28.968Z,101067.41
2023-02-22T06:52:56.757Z,101071.77
2023-02-22T06:55:26.202Z,101073.92
2023-02-22T06:57:53.410Z,101072.63
2023-02-22T07:00:24.541Z,101069.59
2023-02-22T07:02:51.946Z,101076.00
2023-02-22T07:05:23.624Z,101078.55
2023-02-22T07:07:55.436Z,101077.02
2023-02-22T07:10:27.822Z,101076.61
2023-02-22T07:12:55.034Z,101077.48
2023-02-22T07:15:24.156Z,101078.17
2023-02-22T07:17:51.932Z,101079.16
2023-02-22T07:20:20.791Z,101077.85
2023-02-22T07:22:48.405Z,101080.48
2023-02-22T07:25:15.260Z,101076.30
2023-02-22T07:27:43.116Z,101077.67
2023-02-22T07:30:18.923Z,101077.97
2023-02-22T07:32:47.341Z,101078.15
2023-02-22T07:35:27.338Z,101076.44
2023-02-22T07:37:55.945Z,101080.66
2023-02-22T07:40:24.379Z,101078.88
2023-02-22T07:43:21.891Z,101075.16
2023-02-22T07:45:50.302Z,101074.83
2023-02-22T07:48:18.312Z,101074.27
2023-02-22T07:50:45.679Z,101075.48
2023-02-22T07:53:15.398Z,101068.73
2023-02-22T07:55:45.160Z,101071.90
2023-02-22T07:58:15.861Z,101068.95
2023-02-22T08:00:47.346Z,101070.98
2023-02-22T08:03:16.394Z,101067.80
2023-02-22T08:05:46.993Z,101069.38
2023-02-22T08:08:19.748Z,101065.17
2023-02-22T08:10:47.427Z,101062.83
2023-02-22T08:13:14.927Z,101059.94
2023-02-22T08:15:44.384Z,101057.79
2023-02-22T08:18:18.496Z,101055.23
2023-02-22T08:20:46.993Z,101059.07
2023-02-22T08:23:15.475Z,101055.98
2023-02-22T08:25:42.249Z,101057.41
2023-02-22T08:28:15.366Z,101053.95
2023-02-22T08:30:43.894Z,101054.27
2023-02-22T08:33:14.567Z,101056.40
2023-02-22T08:35:41.879Z,101056.99
2023-02-22T08:38:15.380Z,101056.13
2023-02-22T08:40:42.124Z,101053.83
2023-02-22T08:43:08.748Z,101055.59
2023-02-22T08:45:35.554Z,101053.98
2023-02-22T08:48:02.737Z,101051.36
2023-02-22T08:50:33.729Z,101050.50
2023-02-22T08:53:03.069Z,101052.76
2023-02-22T08:55:32.726Z,101050.38
2023-02-22T08:58:02.962Z,101047.38
2023-02-22T09:00:35.396Z,101050.02
2023-02-22T09:03:15.307Z,101048.59
2023-02-22T09:05:43.449Z,101052.08
2023-02-22T09:08:10.580Z,101048.05
2023-02-22T09:10:37.595Z,101050.98
2023-02-22T09:13:04.948Z,101050.30
2023-02-22T09:15:33.042Z,101049.27
2023-02-22T09:18:00.164Z,101045.99
2023-02-22T09:20:28.123Z,101043.48
2023-02-22T09:22:55.369Z,101041.73
2023-02-22T09:25:23.410Z,101042.31
2023-02-22T09:27:54.537Z,101038.30
2023-02-22T09:30:33.514Z,101036.52
2023-02-22T09:33:10.173Z,101034.16
2023-02-22T09:35:37.950Z,101031.21
2023-02-22T09:38:08.479Z,101029.40
2023-02-22T09:40:45.164Z,101031.62
2023-02-22T09:43:50.754Z,101033.10
2023-02-22T09:46:34.746Z,101032.61
2023-02-22T09:49:19.606Z,101030.70
2023-02-22T09:51:58.761Z,101032.89
2023-02-22T09:54:45.413Z,101029.18
2023-02-22T09:57:32.056Z,101030.88
2023-02-22T10:00:15.555Z,101029.56
2023-02-22T10:03:08.293Z,101026.24
2023-02-22T10:05:41.958Z,101023.83
2023-02-22T10:08:14.718Z,101022.29
2023-02-22T10:10:46.200Z,101019.31
2023-02-22T10:13:31.609Z,101013.86
2023-02-22T10:16:25.711Z,101008.56
2023-02-22T10:19:08.481Z,101010.52
2023-02-22T10:21:47.514Z,101009.11
2023-02-22T10:24:32.620Z,101005.02
2023-02-22T10:27:00.972Z,101004.02
2023-02-22T10:29:53.259Z,101001.98
2023-02-22T10:32:29.185Z,101002.48
2023-02-22T10:35:03.369Z,101001.88
2023-02-22T10:37:32.945Z,101003.55
2023-02-22T10:40:23.093Z,101000.54
2023-02-22T10:42:50.332Z,101003.20
2023-02-22T10:45:25.856Z,100997.23
2023-02-22T10:47:56.266Z,100994.41
2023-02-22T10:50:23.017Z,100994.02
2023-02-22T10:52:49.949Z,100989.15
2023-02-22T10:55:17.329Z,100986.94
2023-02-22T10:57:50.865Z,100980.97
2023-02-22T11:00:30.503Z,100977.21
2023-02-22T11:02:58.322Z,100975.73
2023-02-22T11:05:38.665Z,100973.67
2023-02-22T11:08:24.707Z,100970.98
2023-02-22T11:11:01.962Z,100970.41
2023-02-22T11:13:38.068Z,100965.48
2023-02-22T11:16:20.158Z,100961.55
2023-02-22T11:18:49.677Z,100961.09
2023-02-22T11:21:23.102Z,100954.70
2023-02-22T11:24:01.130Z,100951.66
2023-02-22T11:26:28.749Z,100948.61
2023-02-22T11:28:56.669Z,100943.49
2023-02-22T11:31:27.856Z,100938.26
2023-02-22T11:36:41.068Z,100933.01
2023-02-22T11:39:27.055Z,100931.98
2023-02-22T11:41:56.703Z,100931.38
2023-02-22T11:44:32.592Z,100928.96
2023-02-22T11:47:07.215Z,100924.20
2023-02-22T11:49:38.360Z,100921.05
2023-02-22T11:52:05.074Z,100920.34
2023-02-22T11:54:52.816Z,100917.88
2023-02-22T11:57:31.724Z,100916.52
2023-02-22T12:00:15.494Z,100911.91
2023-02-22T12:02:57.340Z,100911.70
2023-02-22T12:05:59.844Z,100907.25
2023-02-22T12:08:39.117Z,100905.70
2023-02-22T12:11:20.677Z,100904.74
2023-02-22T12:14:35.989Z,100901.08
2023-02-22T12:17:09.045Z,100896.16
2023-02-22T12:19:50.467Z,100895.79
2023-02-22T12:22:25.720Z,100891.33
2023-02-22T12:25:09.696Z,100890.01
2023-02-22T12:27:43.595Z,100888.37
2023-02-22T12:30:29.335Z,100888.17
2023-02-22T12:33:00.203Z,100885.95
2023-02-22T12:35:30.200Z,100883.74
2023-02-22T12:38:04.747Z,100885.45
2023-02-22T12:40:47.630Z,100884.86
2023-02-22T12:43:23.403Z,100880.52
2023-02-22T12:46:27.226Z,100878.93
2023-02-22T12:49:20.934Z,100874.15
2023-02-22T12:52:21.983Z,100874.41
2023-02-22T12:54:59.534Z,100876.79
2023-02-22T12:57:42.428Z,100871.52
2023-02-22T13:00:23.320Z,100869.66
2023-02-22T13:03:07.046Z,100867.00
2023-02-22T13:05:43.438Z,100868.78
2023-02-22T13:08:34.133Z,100868.29
2023-02-22T13:11:04.769Z,100860.52
2023-02-22T13:13:47.389Z,100864.89
2023-02-22T13:16:33.723Z,100861.59
2023-02-22T13:19:38.598Z,100862.22
2023-02-22T13:22:21.134Z,100862.04
2023-02-22T13:25:00.084Z,100859.99
2023-02-22T13:27:32.767Z,100857.30
2023-02-22T13:30:01.880Z,100855.93
2023-02-22T13:32:48.024Z,100853.11
2023-02-22T13:35:42.531Z,100852.65
2023-02-22T13:38:28.502Z,100854.77
2023-02-22T13:41:10.489Z,100850.64
2023-02-22T13:43:52.317Z,100853.50
2023-02-22T13:46:40.307Z,100854.90
2023-02-22T13:49:26.030Z,100848.37
2023-02-22T13:51:59.014Z,100849.27
2023-02-22T13:54:37.962Z,100852.41
2023-02-22T13:57:17.157Z,100848.14
2023-02-22T13:59:47.444Z,100842.45
2023-02-22T14:02:52.757Z,100843.06
2023-02-22T14:05:49.912Z,100844.88
2023-02-22T14:08:19.801Z,100841.33
2023-02-22T14:10:59.283Z,100837.88
2023-02-22T14:13:30.861Z,100839.49
2023-02-22T14:16:00.605Z,100839.36
2023-02-22T14:18:42.970Z,100838.23
2023-02-22T14:21:11.962Z,100835.08
2023-02-22T14:23:41.479Z,100832.95
2023-02-22T14:26:18.892Z,100836.63
2023-02-22T14:28:50.981Z,100832.79
2023-02-22T14:31:34.944Z,100833.28
2023-02-22T14:34:08.354Z,100830.52
2023-02-22T14:36:58.457Z,100826.18
2023-02-22T14:39:43.650Z,100825.20
2023-02-22T14:42:17.821Z,100829.41
2023-02-22T14:45:12.639Z,100829.08
2023-02-22T14:48:16.528Z,100827.13
2023-02-22T14:51:21.453Z,100824.66
2023-02-22T14:53:52.953Z,100828.77
2023-02-22T14:56:23.603Z,100829.10
2023-02-22T14:59:07.915Z,100829.42
2023-02-22T15:01:50.857Z,100827.39
2023-02-22T15:04:28.959Z,100824.60
2023-02-22T15:07:00.955Z,100821.66
2023-02-22T15:09:37.205Z,100822.02
2023-02-22T15:12:03.864Z,100817.02
2023-02-22T15:14:37.723Z,100817.59
2023-02-22T15:17:10.327Z,100819.46
2023-02-22T15:19:40.223Z,100815.34
2023-02-22T15:22:20.820Z,100813.14
2023-02-22T15:24:58.911Z,100815.57
2023-02-22T15:27:26.243Z,100812.63
2023-02-22T15:30:01.238Z,100813.38
2023-02-22T15:32:50.026Z,100810.55
2023-02-22T15:35:29.846Z,100811.00
2023-02-22T15:38:02.628Z,100814.01
2023-02-22T15:40:33.319Z,100815.54
2023-02-22T15:43:11.049Z,100814.81
2023-02-22T15:45:43.297Z,100808.89
2023-02-22T15:48:11.755Z,100807.46
2023-02-22T15:50:39.245Z,100805.36
2023-02-22T15:53:18.296Z,100801.40
2023-02-22T15:55:49.842Z,100802.80
2023-02-22T15:58:16.418Z,100800.07
2023-02-22T16:00:46.923Z,100800.45
2023-02-22T16:03:16.837Z,100797.67
2023-02-22T16:05:56.828Z,100795.00
2023-02-22T16:08:29.459Z,100794.15
2023-02-22T16:11:04.068Z,100787.53
2023-02-22T16:13:37.217Z,100789.66
2023-02-22T16:16:22.534Z,100789.45
2023-02-22T16:18:51.091Z,100787.27
2023-02-22T16:21:23.713Z,100790.08
2023-02-22T16:24:06.974Z,100792.23
2023-02-22T16:26:41.470Z,100797.09
2023-02-22T16:29:09.707Z,100792.55
2023-02-22T16:31:39.732Z,100790.86
2023-02-22T16:34:08.402Z,100790.00
2023-02-22T16:36:40.057Z,100791.05
2023-02-22T16:39:09.069Z,100790.00
2023-02-22T16:41:35.975Z,100789.39
2023-02-22T16:44:03.055Z,100792.25
2023-02-22T16:46:29.879Z,100790.52
2023-02-22T16:48:59.649Z,100789.37
2023-02-22T16:51:28.657Z,100792.55
2023-02-22T16:53:56.405Z,100789.20
2023-02-22T16:56:30.836Z,100792.01
2023-02-22T16:59:01.320Z,100795.52
2023-02-22T17:01:28.071Z,100790.16
2023-02-22T17:03:54.903Z,100795.36
2023-02-22T17:06:21.717Z,100797.98
2023-02-22T17:08:51.989Z,100802.12
2023-02-22T17:11:19.204Z,100802.28
2023-02-22T17:13:47.269Z,100802.57
2023-02-22T17:16:15.464Z,100809.69
2023-02-22T17:18:46.141Z,100813.19
2023-02-22T17:21:13.012Z,100815.85
2023-02-22T17:23:39.976Z,100817.55
2023-02-22T17:26:06.550Z,100819.23
2023-02-22T17:28:33.192Z,100816.02
2023-02-22T17:31:01.988Z,100817.15
2023-02-22T17:33:32.998Z,100821.73
2023-02-22T17:36:04.940Z,100825.54
2023-02-22T17:38:31.834Z,100828.15
2023-02-22T17:41:03.563Z,100827.20
2023-02-22T17:43:30.156Z,100828.93
2023-02-22T17:45:57.329Z,100831.32
2023-02-22T17:48:24.575Z,100831.15
2023-02-22T17:50:52.235Z,100837.64
2023-02-22T17:53:22.816Z,100838.36
2023-02-22T17:55:50.473Z,100842.44
2023-02-22T17:58:17.517Z,100840.61
2023-02-22T18:00:50.045Z,100839.81
2023-02-22T18:03:25.424Z,100842.05
2023-02-22T18:05:57.596Z,100842.50
2023-02-22T18:08:29.262Z,100845.09
2023-02-22T18:11:02.180Z,100839.90
2023-02-22T18:13:28.956Z,100845.34
2023-02-22T18:16:05.081Z,100841.03
2023-02-22T18:18:35.896Z,100837.84
2023-02-22T18:21:03.836Z,100834.73
2023-02-22T18:23:31.629Z,100830.72
2023-02-22T18:26:10.564Z,100828.83
2023-02-22T18:28:40.774Z,100832.77
2023-02-22T18:31:15.967Z,100829.30
2023-02-22T18:33:44.260Z,100830.63
2023-02-22T18:36:15.578Z,100832.61
2023-02-22T18:38:43.682Z,100830.27
2023-02-22T18:41:16.074Z,100829.95
2023-02-22T18:43:43.594Z,100824.70
2023-02-22T18:46:14.544Z,100826.98
2023-02-22T18:48:41.931Z,100821.98
2023-02-22T18:51:13.891Z,100821.31
2023-02-22T18:53:41.591Z,100819.74
2023-02-22T18:56:14.230Z,100820.39
2023-02-22T18:58:43.347Z,100816.83
2023-02-22T19:01:16.211Z,100815.33
2023-02-22T19:03:43.105Z,100815.70
2023-02-22T19:06:10.402Z,100813.25
2023-02-22T19:08:42.336Z,100811.77
2023-02-22T19:11:10.910Z,100812.12
2023-02-22T19:13:38.370Z,100813.83
2023-02-22T19:16:07.431Z,100815.30
2023-02-22T19:18:34.820Z,100815.17
2023-02-22T19:21:04.289Z,100819.13
2023-02-22T19:23:34.464Z,100819.66
2023-02-22T19:26:03.954Z,100819.04
2023-02-22T19:28:36.692Z,100824.35
2023-02-22T19:31:11.644Z,100824.28
2023-02-22T19:33:38.521Z,100827.48
2023-02-22T19:36:05.533Z,100826.55
2023-02-22T19:38:32.305Z,100829.02
2023-02-22T19:40:58.921Z,100833.85
2023-02-22T19:43:25.566Z,100833.70
2023-02-22T19:45:52.186Z,100831.85
2023-02-22T19:48:19.170Z,100833.63
2023-02-22T19:50:49.552Z,100833.77
2023-02-22T19:53:19.619Z,100832.91
2023-02-22T19:55:46.195Z,100832.46
2023-02-22T19:58:15.331Z,100835.89
2023-02-22T20:00:42.103Z,100838.55
2023-02-22T20:03:13.411Z,100838.52
2023-02-22T20:05:41.527Z,100838.53
2023-02-22T20:08:08.786Z,100839.23
2023-02-22T20:10:35.627Z,100842.31
2023-02-22T20:13:03.211Z,100844.88
2023-02-22T20:15:30.099Z,100844.08
2023-02-22T20:17:57.968Z,100842.94
2023-02-22T20:20:25.749Z,100845.15
2023-02-22T20:22:53.534Z,100844.13
2023-02-22T20:25:20.530Z,100843.98
2023-02-22T20:27:48.681Z,100842.18
2023-02-22T20:30:18.266Z,100843.05
2023-02-22T20:32:46.072Z,100845.08
2023-02-22T20:35:13.603Z,100847.52
2023-02-22T20:37:43.918Z,100846.48
2023-02-22T20:40:11.091Z,100847.67
2023-02-22T20:42:39.352Z,100848.32
2023-02-22T20:45:11.902Z,100849.06
2023-02-22T20:47:39.082Z,100845.48
2023-02-22T20:50:07.387Z,100843.15
2023-02-22T20:52:35.843Z,100840.60
2023-02-22T20:55:04.402Z,100840.88
2023-02-22T20:57:31.169Z,100841.90
2023-02-22T20:59:57.832Z,100842.05
2023-02-22T21:02:24.551Z,100843.27
2023-02-22T21:04:57.753Z,100844.30
2023-02-22T21:07:24.711Z,100840.37
2023-02-22T21:09:53.002Z,100838.20
2023-02-22T21:12:19.920Z,100835.10
2023-02-22T21:14:47.584Z,100836.58
2023-02-22T21:17:14.739Z,100838.08
2023-02-22T21:19:42.299Z,100834.92
2023-02-22T21:22:09.965Z,100832.72
2023-02-22T21:24:37.846Z,100829.95
2023-02-22T21:27:07.049Z,100825.78
2023-02-22T21:29:35.478Z,100826.59
2023-02-22T21:32:02.874Z,100824.68
2023-02-22T21:34:29.902Z,100824.15
2023-02-22T21:36:56.869Z,100821.59
2023-02-22T21:39:28.610Z,100818.73
2023-02-22T21:42:00.584Z,100818.95
2023-02-22T21:44:28.237Z,100820.23
2023-02-22T21:46:54.937Z,100817.48
2023-02-22T21:49:25.133Z,100814.73
2023-02-22T21:51:52.643Z,100812.27
2023-02-22T21:54:20.151Z,100813.16
2023-02-22T21:56:46.991Z,100809.10
2023-02-22T21:59:18.905Z,100808.09
2023-02-22T22:01:52.555Z,100802.97
2023-02-22T22:04:22.474Z,100804.95
2023-02-22T22:06:51.648Z,100804.29
2023-02-22T22:09:19.907Z,100803.73
2023-02-22T22:11:54.703Z,100803.93
2023-02-22T22:14:23.580Z,100808.36
2023-02-22T22:16:52.644Z,100808.23
2023-02-22T22:19:20.503Z,100807.17
2023-02-22T22:21:48.839Z,100808.70
2023-02-22T22:24:16.068Z,100804.57
2023-02-22T22:26:44.079Z,100802.84
2023-02-22T22:29:11.626Z,100804.39
2023-02-22T22:31:38.865Z,100807.19
2023-02-22T22:34:06.178Z,100807.03
2023-02-22T22:36:34.493Z,100807.80
2023-02-22T22:39:01.237Z,100806.61
2023-02-22T22:41:28.344Z,100801.83
2023-02-22T22:43:55.748Z,100800.16
2023-02-22T22:46:23.073Z,100801.21
2023-02-22T22:48:49.945Z,100800.70
2023-02-22T22:51:22.061Z,100798.75
2023-02-22T22:53:50.582Z,100798.01
2023-02-22T22:56:20.505Z,100790.78
2023-02-22T22:58:53.695Z,100789.20
2023-02-22T23:01:34.257Z,100788.58
2023-02-22T23:04:07.967Z,100791.19
2023-02-22T23:06:46.391Z,100789.98
2023-02-22T23:09:21.924Z,100789.73
2023-02-22T23:11:53.383Z,100789.51
2023-02-22T23:14:24.261Z,100784.90
2023-02-22T23:16:55.371Z,100785.58
2023-02-22T23:19:21.966Z,100782.24
2023-02-22T23:21:49.788Z,100783.89
2023-02-22T23:24:20.025Z,100784.15
2023-02-22T23:26:49.826Z,100784.20
2023-02-22T23:29:18.855Z,100784.90
2023-02-22T23:31:48.467Z,100786.08
2023-02-22T23:34:21.350Z,100783.63
2023-02-22T23:36:49.344Z,100779.01
2023-02-22T23:39:20.713Z,100778.31
2023-02-22T23:42:00.174Z,100778.31
2023-02-22T23:44:28.039Z,100776.73
2023-02-22T23:46:56.823Z,100777.23
2023-02-22T23:49:27.262Z,100771.83
2023-02-22T23:51:54.216Z,100773.81
2023-02-22T23:54:21.607Z,100770.01
2023-02-22T23:57:02.392Z,100772.44
2023-02-22T23:59:32.769Z,100768.59
